createdAt,value
2023-03-22T00:00:08.443Z,71.67
2023-03-22T00:01:08.579Z,71.67
2023-03-22T00:02:08.767Z,71.67
2023-03-22T00:03:08.929Z,71.67
2023-03-22T00:04:09.251Z,71.67
2023-03-22T00:05:09.299Z,71.67
2023-03-22T00:06:09.462Z,71.67
2023-03-22T00:07:09.631Z,71.77
2023-03-22T00:08:09.780Z,71.77
2023-03-22T00:09:09.990Z,71.77
2023-03-22T00:10:10.121Z,71.87
2023-03-22T00:11:10.286Z,71.97
2023-03-22T00:12:10.452Z,71.97
2023-03-22T00:13:10.618Z,71.87
2023-03-22T00:14:10.807Z,71.87
2023-03-22T00:15:10.961Z,71.87
2023-03-22T00:16:11.232Z,71.97
2023-03-22T00:17:11.326Z,71.87
2023-03-22T00:18:11.512Z,71.87
2023-03-22T00:19:11.732Z,72.01
2023-03-22T00:20:11.883Z,71.87
2023-03-22T00:21:12.106Z,72.01
2023-03-22T00:22:12.238Z,72.01
2023-03-22T00:23:12.425Z,72.01
2023-03-22T00:24:12.621Z,72.01
2023-03-22T00:25:12.753Z,72.01
2023-03-22T00:26:12.937Z,72.01
2023-03-22T00:27:13.135Z,72.01
2023-03-22T00:28:13.299Z,72.11
2023-03-22T00:29:13.477Z,72.11
2023-03-22T00:30:13.620Z,72.11
2023-03-22T00:31:13.840Z,72.11
2023-03-22T00:32:13.974Z,72.21
2023-03-22T00:33:14.161Z,72.11
2023-03-22T00:34:14.372Z,72.21
2023-03-22T00:35:14.513Z,72.11
2023-03-22T00:36:14.695Z,72.11
2023-03-22T00:37:14.872Z,72.11
2023-03-22T00:38:15.064Z,72.11
2023-03-22T00:39:15.236Z,72.11
2023-03-22T00:40:17.852Z,72.11
2023-03-22T00:41:15.608Z,72.21
2023-03-22T00:42:15.736Z,72.21
2023-03-22T00:43:16.170Z,72.21
2023-03-22T00:44:16.088Z,72.11
2023-03-22T00:45:16.267Z,72.21
2023-03-22T00:46:16.499Z,72.11
2023-03-22T00:47:16.613Z,72.11
2023-03-22T00:48:16.823Z,72.21
2023-03-22T00:49:16.918Z,72.21
2023-03-22T00:50:17.090Z,72.21
2023-03-22T00:51:17.231Z,72.11
2023-03-22T00:52:17.455Z,72.11
2023-03-22T00:53:17.615Z,72.11
2023-03-22T00:54:17.796Z,72.21
2023-03-22T00:55:17.945Z,72.21
2023-03-22T00:56:18.101Z,72.21
2023-03-22T00:57:18.297Z,72.21
2023-03-22T00:58:18.450Z,72.41
2023-03-22T00:59:18.673Z,72.31
2023-03-22T01:00:18.821Z,72.21
2023-03-22T01:01:19.055Z,72.21
2023-03-22T01:02:19.173Z,72.21
2023-03-22T01:03:19.415Z,72.31
2023-03-22T01:04:19.544Z,72.31
2023-03-22T01:05:19.682Z,72.21
2023-03-22T01:06:19.859Z,72.31
2023-03-22T01:07:20.062Z,72.21
2023-03-22T01:08:20.212Z,72.21
2023-03-22T01:09:20.404Z,72.31
2023-03-22T01:10:20.577Z,72.31
2023-03-22T01:11:20.741Z,72.21
2023-03-22T01:12:20.895Z,72.21
2023-03-22T01:13:21.083Z,72.31
2023-03-22T01:14:21.285Z,72.21
2023-03-22T01:15:21.427Z,72.21
2023-03-22T01:16:21.685Z,72.21
2023-03-22T01:17:21.779Z,72.24
2023-03-22T01:18:21.934Z,72.21
2023-03-22T01:19:22.104Z,72.21
2023-03-22T01:20:22.273Z,72.21
2023-03-22T01:21:22.444Z,72.21
2023-03-22T01:22:22.658Z,72.34
2023-03-22T01:23:22.794Z,72.34
2023-03-22T01:24:22.964Z,72.24
2023-03-22T01:25:23.170Z,72.24
2023-03-22T01:26:23.308Z,72.24
2023-03-22T01:27:23.497Z,72.34
2023-03-22T01:28:26.435Z,72.24
2023-03-22T01:29:23.809Z,72.24
2023-03-22T01:30:23.967Z,72.24
2023-03-22T01:31:24.207Z,72.24
2023-03-22T01:32:24.331Z,72.14
2023-03-22T01:33:24.500Z,72.24
2023-03-22T01:34:24.631Z,72.24
2023-03-22T01:35:24.863Z,72.24
2023-03-22T01:36:24.974Z,72.24
2023-03-22T01:37:25.178Z,72.14
2023-03-22T01:38:25.318Z,72.24
2023-03-22T01:39:25.512Z,72.24
2023-03-22T01:40:25.673Z,72.14
2023-03-22T01:41:25.915Z,72.14
2023-03-22T01:42:26.037Z,72.24
2023-03-22T01:43:26.192Z,72.24
2023-03-22T01:44:26.340Z,72.24
2023-03-22T01:45:26.510Z,72.24
2023-03-22T01:46:26.684Z,72.14
2023-03-22T01:47:26.868Z,72.14
2023-03-22T01:48:27.021Z,72.14
2023-03-22T01:49:27.220Z,72.14
2023-03-22T01:50:27.378Z,72.14
2023-03-22T01:51:27.546Z,72.14
2023-03-22T01:52:27.727Z,72.14
2023-03-22T01:53:27.879Z,72.14
2023-03-22T01:54:28.066Z,72.14
2023-03-22T01:55:28.218Z,72.14
2023-03-22T01:56:28.372Z,72.14
2023-03-22T01:57:28.568Z,72.14
2023-03-22T01:58:28.696Z,72.17
2023-03-22T01:59:28.857Z,72.14
2023-03-22T02:00:29.038Z,72.14
2023-03-22T02:01:29.291Z,72.14
2023-03-22T02:02:29.422Z,72.14
2023-03-22T02:03:29.576Z,72.17
2023-03-22T02:04:29.757Z,72.17
2023-03-22T02:05:29.920Z,72.08
2023-03-22T02:06:30.065Z,72.08
2023-03-22T02:07:30.264Z,72.08
2023-03-22T02:08:30.420Z,72.17
2023-03-22T02:09:30.592Z,72.17
2023-03-22T02:10:30.744Z,72.08
2023-03-22T02:11:30.902Z,72.08
2023-03-22T02:12:31.078Z,72.08
2023-03-22T02:13:31.246Z,72.08
2023-03-22T02:14:31.424Z,72.08
2023-03-22T02:15:31.641Z,72.08
2023-03-22T02:16:31.832Z,72.08
2023-03-22T02:17:31.993Z,72.08
2023-03-22T02:18:32.140Z,72.08
2023-03-22T02:19:32.310Z,72.17
2023-03-22T02:20:32.467Z,72.08
2023-03-22T02:21:32.654Z,72.17
2023-03-22T02:22:32.842Z,72.17
2023-03-22T02:23:32.989Z,72.08
2023-03-22T02:24:33.182Z,72.17
2023-03-22T02:25:33.326Z,72.08
2023-03-22T02:26:33.531Z,72.08
2023-03-22T02:27:33.691Z,72.08
2023-03-22T02:28:33.861Z,72.08
2023-03-22T02:29:34.038Z,72.08
2023-03-22T02:30:34.205Z,72.08
2023-03-22T02:31:34.405Z,72.08
2023-03-22T02:32:34.523Z,72.08
2023-03-22T02:33:34.703Z,72.08
2023-03-22T02:34:34.900Z,72.08
2023-03-22T02:35:35.064Z,72.08
2023-03-22T02:36:35.267Z,72.08
2023-03-22T02:37:35.401Z,72.08
2023-03-22T02:38:35.576Z,72.08
2023-03-22T02:39:35.720Z,72.08
2023-03-22T02:40:35.963Z,72.11
2023-03-22T02:41:36.073Z,72.11
2023-03-22T02:42:36.218Z,72.11
2023-03-22T02:43:36.367Z,72.11
2023-03-22T02:44:36.542Z,72.11
2023-03-22T02:45:36.689Z,72.11
2023-03-22T02:46:36.933Z,72.11
2023-03-22T02:47:37.049Z,72.11
2023-03-22T02:48:37.223Z,72.11
2023-03-22T02:49:37.387Z,72.11
2023-03-22T02:50:37.927Z,72.11
2023-03-22T02:51:37.718Z,72.11
2023-03-22T02:52:37.887Z,72.11
2023-03-22T02:53:38.046Z,72.11
2023-03-22T02:54:38.239Z,72.11
2023-03-22T02:55:38.380Z,72.11
2023-03-22T02:56:38.557Z,72.11
2023-03-22T02:57:38.708Z,72.11
2023-03-22T02:58:38.911Z,72.11
2023-03-22T02:59:39.059Z,72.11
2023-03-22T03:00:39.593Z,72.11
2023-03-22T03:01:39.443Z,72.01
2023-03-22T03:02:39.592Z,72.01
2023-03-22T03:03:39.785Z,72.01
2023-03-22T03:04:39.944Z,72.01
2023-03-22T03:05:40.102Z,72.01
2023-03-22T03:06:40.281Z,72.01
2023-03-22T03:07:40.469Z,71.91
2023-03-22T03:08:40.621Z,71.91
2023-03-22T03:09:40.817Z,72.01
2023-03-22T03:10:41.488Z,72.01
2023-03-22T03:11:41.218Z,72.01
2023-03-22T03:12:41.331Z,72.01
2023-03-22T03:13:41.499Z,71.91
2023-03-22T03:14:41.682Z,72.01
2023-03-22T03:15:41.848Z,72.01
2023-03-22T03:16:42.067Z,72.01
2023-03-22T03:17:42.190Z,71.91
2023-03-22T03:18:42.392Z,71.91
2023-03-22T03:19:42.518Z,71.91
2023-03-22T03:20:42.729Z,71.91
2023-03-22T03:21:42.890Z,71.91
2023-03-22T03:22:43.059Z,71.80
2023-03-22T03:23:43.216Z,71.80
2023-03-22T03:24:43.370Z,71.80
2023-03-22T03:25:43.682Z,71.80
2023-03-22T03:26:43.720Z,71.80
2023-03-22T03:27:43.892Z,71.91
2023-03-22T03:28:44.056Z,71.80
2023-03-22T03:29:44.212Z,71.80
2023-03-22T03:30:44.405Z,71.80
2023-03-22T03:31:44.647Z,71.80
2023-03-22T03:32:44.734Z,71.80
2023-03-22T03:33:44.899Z,71.80
2023-03-22T03:34:45.095Z,71.80
2023-03-22T03:35:45.286Z,71.70
2023-03-22T03:36:45.427Z,71.70
2023-03-22T03:37:45.573Z,71.70
2023-03-22T03:38:45.762Z,71.73
2023-03-22T03:39:45.914Z,71.73
2023-03-22T03:40:46.100Z,71.70
2023-03-22T03:41:46.253Z,71.73
2023-03-22T03:42:46.448Z,71.70
2023-03-22T03:43:46.613Z,71.73
2023-03-22T03:44:46.803Z,71.73
2023-03-22T03:45:47.007Z,71.73
2023-03-22T03:46:47.132Z,71.73
2023-03-22T03:47:47.399Z,71.73
2023-03-22T03:48:47.460Z,71.73
2023-03-22T03:49:47.635Z,71.73
2023-03-22T03:50:47.806Z,71.73
2023-03-22T03:51:47.960Z,71.73
2023-03-22T03:52:48.110Z,71.73
2023-03-22T03:53:48.277Z,71.73
2023-03-22T03:54:48.447Z,71.73
2023-03-22T03:55:48.636Z,71.73
2023-03-22T03:56:48.786Z,71.73
2023-03-22T03:57:48.947Z,71.73
2023-03-22T03:58:49.122Z,71.73
2023-03-22T03:59:49.272Z,71.73
2023-03-22T04:00:49.444Z,71.73
2023-03-22T04:01:49.606Z,71.73
2023-03-22T04:02:49.804Z,71.73
2023-03-22T04:03:49.950Z,71.73
2023-03-22T04:04:50.257Z,71.73
2023-03-22T04:05:50.261Z,71.73
2023-03-22T04:06:50.464Z,71.73
2023-03-22T04:07:50.623Z,71.73
2023-03-22T04:08:50.804Z,71.73
2023-03-22T04:09:50.972Z,71.73
2023-03-22T04:10:51.152Z,71.73
2023-03-22T04:11:51.307Z,71.64
2023-03-22T04:12:51.463Z,71.64
2023-03-22T04:13:51.625Z,71.64
2023-03-22T04:14:51.794Z,71.64
2023-03-22T04:15:51.954Z,71.64
2023-03-22T04:16:52.165Z,71.64
2023-03-22T04:17:52.305Z,71.64
2023-03-22T04:18:52.478Z,71.64
2023-03-22T04:19:52.635Z,71.53
2023-03-22T04:20:52.799Z,71.53
2023-03-22T04:21:52.980Z,71.53
2023-03-22T04:22:53.128Z,71.53
2023-03-22T04:23:53.286Z,71.53
2023-03-22T04:24:53.452Z,71.53
2023-03-22T04:25:53.599Z,71.53
2023-03-22T04:26:53.760Z,71.53
2023-03-22T04:27:53.922Z,71.53
2023-03-22T04:28:54.138Z,71.53
2023-03-22T04:29:54.287Z,71.53
2023-03-22T04:30:54.480Z,71.53
2023-03-22T04:31:54.609Z,71.53
2023-03-22T04:32:54.829Z,71.44
2023-03-22T04:33:55.005Z,71.44
2023-03-22T04:34:55.149Z,71.44
2023-03-22T04:35:55.365Z,71.44
2023-03-22T04:36:55.488Z,71.44
2023-03-22T04:37:55.643Z,71.44
2023-03-22T04:38:55.858Z,71.44
2023-03-22T04:39:55.982Z,71.44
2023-03-22T04:40:56.151Z,71.44
2023-03-22T04:41:56.302Z,71.44
2023-03-22T04:42:56.464Z,71.44
2023-03-22T04:43:56.683Z,71.33
2023-03-22T04:44:56.844Z,71.33
2023-03-22T04:45:57.010Z,71.33
2023-03-22T04:46:57.159Z,71.33
2023-03-22T04:47:57.394Z,71.33
2023-03-22T04:48:57.539Z,71.33
2023-03-22T04:49:57.698Z,71.33
2023-03-22T04:50:57.856Z,71.33
2023-03-22T04:51:58.016Z,71.33
2023-03-22T04:52:58.210Z,71.33
2023-03-22T04:53:58.373Z,71.33
2023-03-22T04:54:58.545Z,71.33
2023-03-22T04:55:58.705Z,71.23
2023-03-22T04:56:58.886Z,71.23
2023-03-22T04:57:59.080Z,71.33
2023-03-22T04:58:59.280Z,71.23
2023-03-22T04:59:59.428Z,71.23
2023-03-22T05:00:59.587Z,71.23
2023-03-22T05:01:59.787Z,71.23
2023-03-22T05:02:59.961Z,71.23
2023-03-22T05:04:00.125Z,71.23
2023-03-22T05:05:00.274Z,71.23
2023-03-22T05:06:00.445Z,71.13
2023-03-22T05:07:00.606Z,71.23
2023-03-22T05:08:00.775Z,71.23
2023-03-22T05:09:00.980Z,71.23
2023-03-22T05:10:01.160Z,71.13
2023-03-22T05:11:01.322Z,71.13
2023-03-22T05:12:01.496Z,71.13
2023-03-22T05:13:01.715Z,71.13
2023-03-22T05:14:01.874Z,71.13
2023-03-22T05:15:02.046Z,71.13
2023-03-22T05:16:02.264Z,71.13
2023-03-22T05:17:02.411Z,71.13
2023-03-22T05:18:02.581Z,71.03
2023-03-22T05:19:02.721Z,71.03
2023-03-22T05:20:02.899Z,71.03
2023-03-22T05:21:03.128Z,71.03
2023-03-22T05:22:03.297Z,71.03
2023-03-22T05:23:03.467Z,71.03
2023-03-22T05:24:03.658Z,71.03
2023-03-22T05:25:03.794Z,71.03
2023-03-22T05:26:03.963Z,71.03
2023-03-22T05:27:04.168Z,71.03
2023-03-22T05:28:04.304Z,71.03
2023-03-22T05:29:04.489Z,71.03
2023-03-22T05:30:04.675Z,70.93
2023-03-22T05:31:04.908Z,71.03
2023-03-22T05:32:05.014Z,71.03
2023-03-22T05:33:05.211Z,71.03
2023-03-22T05:34:05.376Z,71.03
2023-03-22T05:35:05.555Z,71.03
2023-03-22T05:36:05.739Z,71.03
2023-03-22T05:37:05.929Z,71.03
2023-03-22T05:38:06.076Z,71.03
2023-03-22T05:39:06.262Z,71.03
2023-03-22T05:40:06.478Z,70.93
2023-03-22T05:41:06.650Z,70.93
2023-03-22T05:42:06.805Z,71.03
2023-03-22T05:43:06.976Z,71.03
2023-03-22T05:44:07.162Z,71.03
2023-03-22T05:45:07.321Z,71.03
2023-03-22T05:46:07.526Z,71.03
2023-03-22T05:47:07.714Z,70.93
2023-03-22T05:48:07.878Z,71.03
2023-03-22T05:49:08.044Z,70.93
2023-03-22T05:50:08.199Z,71.03
2023-03-22T05:51:08.420Z,71.03
2023-03-22T05:52:08.563Z,70.93
2023-03-22T05:53:08.726Z,71.03
2023-03-22T05:54:08.895Z,70.93
2023-03-22T05:55:09.076Z,70.93
2023-03-22T05:56:09.359Z,70.93
2023-03-22T05:57:09.463Z,70.93
2023-03-22T05:58:09.611Z,70.93
2023-03-22T05:59:09.804Z,70.93
2023-03-22T06:00:09.983Z,70.93
2023-03-22T06:01:10.176Z,70.93
2023-03-22T06:02:10.378Z,70.83
2023-03-22T06:03:10.523Z,70.83
2023-03-22T06:04:10.652Z,70.83
2023-03-22T06:05:10.841Z,70.83
2023-03-22T06:06:10.983Z,70.83
2023-03-22T06:07:11.160Z,70.72
2023-03-22T06:08:11.331Z,70.72
2023-03-22T06:09:17.236Z,70.72
2023-03-22T06:10:12.706Z,70.72
2023-03-22T06:11:11.883Z,70.72
2023-03-22T06:12:12.051Z,70.72
2023-03-22T06:13:12.315Z,70.72
2023-03-22T06:14:12.455Z,70.72
2023-03-22T06:15:12.609Z,70.62
2023-03-22T06:16:12.777Z,70.62
2023-03-22T06:17:12.943Z,70.62
2023-03-22T06:18:13.116Z,70.62
2023-03-22T06:19:13.296Z,70.62
2023-03-22T06:20:13.485Z,70.62
2023-03-22T06:21:13.647Z,70.59
2023-03-22T06:22:13.815Z,70.62
2023-03-22T06:23:14.006Z,70.52
2023-03-22T06:24:14.190Z,70.52
2023-03-22T06:25:14.369Z,70.49
2023-03-22T06:26:14.539Z,70.49
2023-03-22T06:27:14.728Z,70.49
2023-03-22T06:28:14.890Z,70.39
2023-03-22T06:29:15.104Z,70.39
2023-03-22T06:30:15.259Z,70.39
2023-03-22T06:31:15.497Z,70.39
2023-03-22T06:32:15.627Z,70.39
2023-03-22T06:33:15.795Z,70.39
2023-03-22T06:34:16.002Z,70.39
2023-03-22T06:35:16.165Z,70.29
2023-03-22T06:36:16.359Z,70.29
2023-03-22T06:37:16.508Z,70.29
2023-03-22T06:38:16.703Z,70.18
2023-03-22T06:39:16.883Z,70.18
2023-03-22T06:40:17.080Z,70.18
2023-03-22T06:41:17.244Z,70.18
2023-03-22T06:42:17.433Z,70.08
2023-03-22T06:43:17.599Z,70.18
2023-03-22T06:44:17.784Z,70.08
2023-03-22T06:45:17.963Z,70.08
2023-03-22T06:46:18.222Z,70.05
2023-03-22T06:47:18.310Z,69.95
2023-03-22T06:48:18.595Z,69.95
2023-03-22T06:49:18.688Z,69.95
2023-03-22T06:50:18.875Z,69.95
2023-03-22T06:51:19.013Z,69.95
2023-03-22T06:52:19.196Z,69.95
2023-03-22T06:53:19.351Z,69.95
2023-03-22T06:54:19.545Z,69.85
2023-03-22T06:55:19.718Z,70.05
2023-03-22T06:56:19.913Z,71.88
2023-03-22T06:57:20.072Z,71.77
2023-03-22T06:58:20.254Z,71.97
2023-03-22T06:59:20.433Z,71.94
2023-03-22T07:00:20.625Z,71.73
2023-03-22T07:01:20.792Z,71.33
2023-03-22T07:02:20.942Z,71.13
2023-03-22T07:03:21.115Z,71.13
2023-03-22T07:04:21.347Z,71.00
2023-03-22T07:05:21.493Z,71.00
2023-03-22T07:06:21.672Z,70.69
2023-03-22T07:07:21.872Z,70.49
2023-03-22T07:08:22.018Z,70.29
2023-03-22T07:09:22.218Z,70.05
2023-03-22T07:10:22.374Z,69.75
2023-03-22T07:11:22.538Z,69.34
2023-03-22T07:12:22.725Z,69.34
2023-03-22T07:13:22.877Z,69.14
2023-03-22T07:14:23.078Z,68.94
2023-03-22T07:15:23.250Z,68.71
2023-03-22T07:16:23.508Z,68.71
2023-03-22T07:17:23.580Z,68.51
2023-03-22T07:18:23.735Z,68.40
2023-03-22T07:19:23.912Z,68.20
2023-03-22T07:20:24.063Z,68.00
2023-03-22T07:21:24.251Z,67.97
2023-03-22T07:22:24.463Z,67.86
2023-03-22T07:23:24.635Z,67.86
2023-03-22T07:24:24.792Z,67.76
2023-03-22T07:25:24.956Z,67.53
2023-03-22T07:26:25.113Z,67.43
2023-03-22T07:27:25.340Z,67.23
2023-03-22T07:28:25.504Z,67.33
2023-03-22T07:29:25.692Z,66.82
2023-03-22T07:30:25.848Z,66.89
2023-03-22T07:31:26.022Z,67.10
2023-03-22T07:32:26.233Z,66.89
2023-03-22T07:33:26.366Z,66.29
2023-03-22T07:34:26.544Z,66.19
2023-03-22T07:35:27.069Z,66.19
2023-03-22T07:36:26.868Z,66.39
2023-03-22T07:37:27.027Z,66.25
2023-03-22T07:38:27.198Z,66.05
2023-03-22T07:39:27.388Z,66.05
2023-03-22T07:40:27.543Z,66.05
2023-03-22T07:41:27.701Z,65.95
2023-03-22T07:42:27.895Z,65.75
2023-03-22T07:43:28.066Z,65.55
2023-03-22T07:44:28.233Z,65.12
2023-03-22T07:45:28.693Z,65.01
2023-03-22T07:46:28.601Z,65.01
2023-03-22T07:47:40.397Z,64.92
2023-03-22T07:48:29.964Z,64.72
2023-03-22T07:49:29.087Z,64.72
2023-03-22T07:50:29.349Z,64.72
2023-03-22T07:51:29.487Z,64.51
2023-03-22T07:52:29.650Z,64.51
2023-03-22T07:53:29.803Z,64.69
2023-03-22T07:54:34.206Z,64.48
2023-03-22T07:55:30.169Z,64.07
2023-03-22T07:56:30.369Z,63.98
2023-03-22T07:57:30.524Z,64.07
2023-03-22T07:58:30.699Z,64.28
2023-03-22T07:59:30.897Z,63.98
2023-03-22T08:00:31.063Z,63.67
2023-03-22T08:01:31.240Z,63.78
2023-03-22T08:02:31.427Z,64.28
2023-03-22T08:03:31.660Z,63.98
2023-03-22T08:04:31.810Z,64.25
2023-03-22T08:05:31.958Z,64.15
2023-03-22T08:06:32.135Z,64.05
2023-03-22T08:07:32.338Z,63.95
2023-03-22T08:08:32.509Z,64.25
2023-03-22T08:09:32.647Z,64.35
2023-03-22T08:10:32.846Z,64.12
2023-03-22T08:11:33.003Z,64.02
2023-03-22T08:12:33.202Z,63.92
2023-03-22T08:13:33.369Z,63.48
2023-03-22T08:14:36.326Z,63.39
2023-03-22T08:15:33.727Z,63.68
2023-03-22T08:16:33.999Z,63.79
2023-03-22T08:17:34.061Z,63.18
2023-03-22T08:18:34.242Z,63.15
2023-03-22T08:19:34.415Z,63.15
2023-03-22T08:20:34.595Z,62.65
2023-03-22T08:21:34.789Z,63.15
2023-03-22T08:22:34.959Z,63.05
2023-03-22T08:23:41.878Z,62.92
2023-03-22T08:24:36.268Z,62.22
2023-03-22T08:25:35.580Z,62.52
2023-03-22T08:26:35.711Z,62.72
2023-03-22T08:27:35.818Z,62.29
2023-03-22T08:28:35.997Z,61.99
2023-03-22T08:29:36.221Z,61.69
2023-03-22T08:30:36.354Z,61.46
2023-03-22T08:31:36.575Z,61.66
2023-03-22T08:32:36.680Z,61.96
2023-03-22T08:33:36.868Z,61.66
2023-03-22T08:34:37.018Z,61.52
2023-03-22T08:35:37.239Z,61.52
2023-03-22T08:36:37.410Z,61.43
2023-03-22T08:37:37.545Z,61.00
2023-03-22T08:38:37.703Z,61.00
2023-03-22T08:39:37.874Z,60.80
2023-03-22T08:40:38.140Z,60.47
2023-03-22T08:41:38.248Z,60.03
2023-03-22T08:42:38.423Z,59.74
2023-03-22T08:43:38.632Z,59.20
2023-03-22T08:44:38.774Z,58.61
2023-03-22T08:45:39.356Z,58.48
2023-03-22T08:46:39.112Z,58.25
2023-03-22T08:47:39.311Z,57.82
2023-03-22T08:48:39.688Z,57.32
2023-03-22T08:49:39.654Z,56.99
2023-03-22T08:50:39.796Z,56.67
2023-03-22T08:51:39.958Z,56.24
2023-03-22T08:52:40.155Z,56.01
2023-03-22T08:53:40.304Z,55.71
2023-03-22T08:54:40.482Z,55.09
2023-03-22T08:55:40.880Z,54.96
2023-03-22T08:56:40.858Z,54.24
2023-03-22T08:57:41.048Z,54.01
2023-03-22T08:58:41.221Z,53.91
2023-03-22T08:59:41.393Z,52.79
2023-03-22T09:00:48.484Z,53.29
2023-03-22T09:01:42.852Z,53.19
2023-03-22T09:02:41.906Z,53.16
2023-03-22T09:03:42.066Z,53.06
2023-03-22T09:04:42.290Z,52.97
2023-03-22T09:05:42.389Z,52.64
2023-03-22T09:06:42.568Z,51.52
2023-03-22T09:07:42.740Z,51.50
2023-03-22T09:08:42.917Z,50.78
2023-03-22T09:09:43.074Z,50.75
2023-03-22T09:10:43.241Z,50.43
2023-03-22T09:11:43.420Z,49.91
2023-03-22T09:12:43.611Z,48.50
2023-03-22T09:13:43.749Z,49.17
2023-03-22T09:14:43.910Z,48.45
2023-03-22T09:15:44.225Z,48.13
2023-03-22T09:16:44.267Z,47.22
2023-03-22T09:17:44.433Z,47.17
2023-03-22T09:18:44.596Z,46.55
2023-03-22T09:19:44.782Z,46.33
2023-03-22T09:20:44.959Z,45.92
2023-03-22T09:21:45.138Z,45.40
2023-03-22T09:22:45.279Z,45.18
2023-03-22T09:23:45.441Z,44.87
2023-03-22T09:24:45.640Z,44.45
2023-03-22T09:25:45.795Z,44.21
2023-03-22T09:26:45.984Z,43.50
2023-03-22T09:27:46.134Z,43.50
2023-03-22T09:28:46.312Z,43.71
2023-03-22T09:29:46.481Z,44.11
2023-03-22T09:30:46.690Z,44.33
2023-03-22T09:31:46.808Z,44.72
2023-03-22T09:32:46.981Z,44.43
2023-03-22T09:33:47.178Z,44.01
2023-03-22T09:34:47.336Z,43.91
2023-03-22T09:35:47.524Z,43.60
2023-03-22T09:36:47.690Z,43.16
2023-03-22T09:37:47.858Z,42.75
2023-03-22T09:38:48.049Z,42.04
2023-03-22T09:39:48.212Z,42.02
2023-03-22T09:40:48.377Z,41.71
2023-03-22T09:41:48.572Z,41.27
2023-03-22T09:42:48.728Z,40.95
2023-03-22T09:43:48.930Z,40.64
2023-03-22T09:44:49.079Z,40.14
2023-03-22T09:45:49.245Z,39.94
2023-03-22T09:46:49.426Z,39.92
2023-03-22T09:47:49.658Z,39.82
2023-03-22T09:48:49.795Z,39.35
2023-03-22T09:49:53.688Z,40.14
2023-03-22T09:50:50.126Z,39.94
2023-03-22T09:51:50.355Z,40.03
2023-03-22T09:52:50.473Z,40.03
2023-03-22T09:53:50.672Z,39.96
2023-03-22T09:54:52.902Z,40.14
2023-03-22T09:55:50.967Z,39.06
2023-03-22T09:56:51.138Z,39.54
2023-03-22T09:57:51.310Z,39.14
2023-03-22T09:58:51.828Z,38.94
2023-03-22T09:59:51.684Z,39.06
2023-03-22T10:00:51.938Z,39.25
2023-03-22T10:01:52.382Z,39.06
2023-03-22T10:02:52.312Z,38.75
2023-03-22T10:03:52.507Z,38.84
2023-03-22T10:04:52.559Z,38.53
2023-03-22T10:05:52.749Z,38.42
2023-03-22T10:06:52.910Z,37.83
2023-03-22T10:07:53.106Z,38.20
2023-03-22T10:08:53.301Z,38.20
2023-03-22T10:09:53.420Z,38.09
2023-03-22T10:10:53.600Z,38.09
2023-03-22T10:11:53.764Z,38.09
2023-03-22T10:12:53.932Z,38.20
2023-03-22T10:13:54.111Z,38.20
2023-03-22T10:14:54.277Z,38.61
2023-03-22T10:15:54.458Z,38.82
2023-03-22T10:16:56.510Z,38.73
2023-03-22T10:17:54.777Z,38.94
2023-03-22T10:18:54.956Z,39.04
2023-03-22T10:19:55.161Z,39.14
2023-03-22T10:20:55.328Z,39.14
2023-03-22T10:21:55.503Z,39.25
2023-03-22T10:22:55.671Z,39.45
2023-03-22T10:23:55.846Z,39.45
2023-03-22T10:24:56.288Z,39.74
2023-03-22T10:25:56.186Z,39.54
2023-03-22T10:26:56.380Z,39.54
2023-03-22T10:27:57.930Z,39.27
2023-03-22T10:28:56.708Z,39.76
2023-03-22T10:29:56.926Z,40.06
2023-03-22T10:30:57.063Z,39.98
2023-03-22T10:31:57.297Z,40.08
2023-03-22T10:32:58.336Z,39.61
2023-03-22T10:33:57.571Z,39.80
2023-03-22T10:34:57.759Z,40.90
2023-03-22T10:35:57.980Z,40.80
2023-03-22T10:36:58.100Z,40.70
2023-03-22T10:37:58.306Z,41.00
2023-03-22T10:38:58.431Z,40.92
2023-03-22T10:39:58.607Z,41.21
2023-03-22T10:40:58.769Z,41.02
2023-03-22T10:41:58.944Z,41.53
2023-03-22T10:42:59.107Z,41.63
2023-03-22T10:43:59.276Z,41.72
2023-03-22T10:44:59.443Z,41.94
2023-03-22T10:45:59.622Z,41.25
2023-03-22T10:46:59.834Z,42.14
2023-03-22T10:48:00.040Z,41.37
2023-03-22T10:49:00.240Z,41.67
2023-03-22T10:50:00.308Z,39.60
2023-03-22T10:51:00.478Z,40.58
2023-03-22T10:52:00.641Z,41.08
2023-03-22T10:53:00.831Z,40.80
2023-03-22T10:54:01.001Z,41.09
2023-03-22T10:55:04.314Z,40.70
2023-03-22T10:56:01.355Z,40.33
2023-03-22T10:57:01.572Z,39.86
2023-03-22T10:58:01.703Z,40.16
2023-03-22T10:59:01.894Z,40.74
2023-03-22T11:00:02.123Z,40.35
2023-03-22T11:01:02.319Z,39.47
2023-03-22T11:02:02.543Z,39.48
2023-03-22T11:03:02.686Z,39.09
2023-03-22T11:04:02.787Z,39.39
2023-03-22T11:05:02.951Z,39.79
2023-03-22T11:06:03.110Z,39.42
2023-03-22T11:07:03.286Z,40.33
2023-03-22T11:08:03.474Z,40.84
2023-03-22T11:09:03.640Z,41.24
2023-03-22T11:10:03.805Z,42.24
2023-03-22T11:11:03.983Z,42.05
2023-03-22T11:12:04.162Z,41.67
2023-03-22T11:13:04.351Z,41.87
2023-03-22T11:14:04.481Z,41.77
2023-03-22T11:15:04.645Z,41.89
2023-03-22T11:16:04.842Z,41.20
2023-03-22T11:17:05.016Z,41.81
2023-03-22T11:18:05.151Z,41.91
2023-03-22T11:19:05.304Z,42.03
2023-03-22T11:20:07.263Z,42.22
2023-03-22T11:21:05.635Z,43.31
2023-03-22T11:22:05.822Z,43.41
2023-03-22T11:23:05.959Z,43.31
2023-03-22T11:24:06.160Z,44.31
2023-03-22T11:25:06.305Z,43.31
2023-03-22T11:26:06.464Z,42.82
2023-03-22T11:27:06.656Z,43.10
2023-03-22T11:28:06.804Z,43.88
2023-03-22T11:29:06.972Z,43.98
2023-03-22T11:30:07.146Z,43.29
2023-03-22T11:31:07.319Z,44.48
2023-03-22T11:32:07.546Z,44.87
2023-03-22T11:33:07.711Z,44.97
2023-03-22T11:34:07.806Z,44.78
2023-03-22T11:35:07.991Z,44.48
2023-03-22T11:36:08.212Z,45.17
2023-03-22T11:37:08.376Z,45.07
2023-03-22T11:38:08.480Z,44.46
2023-03-22T11:39:08.648Z,44.75
2023-03-22T11:40:08.810Z,45.45
2023-03-22T11:41:08.979Z,44.26
2023-03-22T11:42:09.190Z,42.97
2023-03-22T11:43:09.358Z,45.05
2023-03-22T11:44:09.515Z,43.05
2023-03-22T11:45:09.687Z,42.76
2023-03-22T11:46:09.894Z,44.43
2023-03-22T11:47:10.033Z,44.93
2023-03-22T11:48:10.207Z,43.03
2023-03-22T11:49:10.428Z,44.32
2023-03-22T11:50:10.796Z,44.71
2023-03-22T11:51:10.721Z,42.44
2023-03-22T11:52:10.885Z,44.81
2023-03-22T11:53:11.057Z,43.43
2023-03-22T11:54:11.219Z,40.96
2023-03-22T11:55:11.397Z,41.25
2023-03-22T11:56:11.580Z,42.14
2023-03-22T11:57:11.739Z,43.13
2023-03-22T11:58:11.908Z,43.92
2023-03-22T11:59:12.091Z,44.51
2023-03-22T12:00:12.273Z,42.93
2023-03-22T12:01:12.465Z,44.00
2023-03-22T12:02:12.648Z,44.20
2023-03-22T12:03:12.938Z,44.29
2023-03-22T12:04:12.997Z,42.61
2023-03-22T12:05:13.259Z,43.68
2023-03-22T12:06:13.405Z,43.78
2023-03-22T12:07:13.521Z,44.35
2023-03-22T12:08:13.682Z,44.35
2023-03-22T12:09:13.875Z,43.76
2023-03-22T12:10:14.061Z,44.25
2023-03-22T12:11:14.223Z,44.25
2023-03-22T12:12:14.381Z,44.45
2023-03-22T12:13:14.565Z,43.76
2023-03-22T12:14:14.772Z,44.13
2023-03-22T12:15:14.902Z,44.23
2023-03-22T12:16:15.143Z,41.86
2023-03-22T12:17:15.233Z,43.74
2023-03-22T12:18:15.480Z,43.05
2023-03-22T12:19:15.614Z,43.27
2023-03-22T12:20:15.852Z,43.46
2023-03-22T12:21:15.948Z,43.56
2023-03-22T12:22:16.120Z,43.46
2023-03-22T12:23:16.310Z,42.38
2023-03-22T12:24:16.486Z,43.66
2023-03-22T12:25:17.547Z,42.68
2023-03-22T12:26:16.848Z,42.97
2023-03-22T12:27:17.001Z,43.56
2023-03-22T12:28:17.177Z,42.76
2023-03-22T12:29:17.335Z,42.65
2023-03-22T12:30:17.508Z,42.24
2023-03-22T12:31:17.746Z,43.13
2023-03-22T12:32:17.881Z,41.45
2023-03-22T12:33:18.088Z,42.44
2023-03-22T12:34:18.205Z,40.66
2023-03-22T12:35:18.539Z,41.16
2023-03-22T12:36:18.574Z,40.88
2023-03-22T12:37:18.737Z,43.15
2023-03-22T12:38:18.929Z,42.93
2023-03-22T12:39:19.080Z,41.94
2023-03-22T12:40:19.260Z,42.02
2023-03-22T12:41:19.438Z,42.61
2023-03-22T12:42:19.575Z,42.52
2023-03-22T12:43:19.768Z,42.61
2023-03-22T12:44:19.920Z,42.52
2023-03-22T12:45:20.136Z,43.20
2023-03-22T12:46:20.362Z,41.93
2023-03-22T12:47:20.488Z,42.61
2023-03-22T12:48:20.722Z,42.71
2023-03-22T12:49:20.822Z,43.20
2023-03-22T12:50:20.994Z,43.13
2023-03-22T12:51:21.210Z,43.82
2023-03-22T12:52:21.359Z,43.32
2023-03-22T12:53:21.521Z,42.83
2023-03-22T12:54:21.671Z,43.52